sensor_id;sensor_type;location;lat;lon;timestamp;P1;durP1;ratioP1;P2;durP2;ratioP2
84778;SDS011;75010;50.866;20.620;2024-01-30T00:00:14;56;;;42;;
84778;SDS011;75010;50.866;20.620;2024-01-30T00:10:07;56;;;42;;
84778;SDS011;75010;50.866;20.620;2024-01-30T00:20:12;54;;;43;;
84778;SDS011;75010;50.866;20.620;2024-01-30T00:30:06;56;;;43;;
84778;SDS011;75010;50.866;20.620;2024-01-30T00:40:11;51;;;40;;
84778;SDS011;75010;50.866;20.620;2024-01-30T00:50:13;52;;;39;;
84778;SDS011;75010;50.866;20.620;2024-01-30T01:00:02;52;;;39;;
84778;SDS011;75010;50.866;20.620;2024-01-30T01:10:18;51;;;40;;
84778;SDS011;75010;50.866;20.620;2024-01-30T01:20:14;51;;;40;;
84778;SDS011;75010;50.866;20.620;2024-01-30T01:30:20;51;;;40;;
84778;SDS011;75010;50.866;20.620;2024-01-30T01:40:10;51;;;40;;
84778;SDS011;75010;50.866;20.620;2024-01-30T01:50:07;48;;;39;;
84778;SDS011;75010;50.866;20.620;2024-01-30T02:00:04;49;;;39;;
84778;SDS011;75010;50.866;20.620;2024-01-30T02:10:05;52;;;39;;
84778;SDS011;75010;50.866;20.620;2024-01-30T02:20:10;50;;;40;;
84778;SDS011;75010;50.866;20.620;2024-01-30T02:30:10;51;;;41;;
84778;SDS011;75010;50.866;20.620;2024-01-30T02:40:14;51;;;41;;
84778;SDS011;75010;50.866;20.620;2024-01-30T02:50:09;53;;;41;;
84778;SDS011;75010;50.866;20.620;2024-01-30T03:00:20;41;;;31;;
84778;SDS011;75010;50.866;20.620;2024-01-30T03:10:07;51;;;39;;
84778;SDS011;75010;50.866;20.620;2024-01-30T03:20:09;48;;;39;;
84778;SDS011;75010;50.866;20.620;2024-01-30T03:30:12;48;;;39;;
84778;SDS011;75010;50.866;20.620;2024-01-30T03:40:03;49;;;41;;
84778;SDS011;75010;50.866;20.620;2024-01-30T03:50:11;47;;;39;;
84778;SDS011;75010;50.866;20.620;2024-01-30T04:00:07;50;;;40;;
84778;SDS011;75010;50.866;20.620;2024-01-30T04:10:07;55;;;43;;
84778;SDS011;75010;50.866;20.620;2024-01-30T04:20:15;55;;;43;;
84778;SDS011;75010;50.866;20.620;2024-01-30T04:30:13;56;;;42;;
84778;SDS011;75010;50.866;20.620;2024-01-30T04:40:08;56;;;42;;
84778;SDS011;75010;50.866;20.620;2024-01-30T04:50:16;45;;;37;;
84778;SDS011;75010;50.866;20.620;2024-01-30T05:00:18;45;;;37;;
84778;SDS011;75010;50.866;20.620;2024-01-30T05:10:12;51;;;40;;
84778;SDS011;75010;50.866;20.620;2024-01-30T05:20:11;53;;;44;;
84778;SDS011;75010;50.866;20.620;2024-01-30T05:30:06;53;;;44;;
84778;SDS011;75010;50.866;20.620;2024-01-30T05:40:02;53;;;40;;
84778;SDS011;75010;50.866;20.620;2024-01-30T05:50:09;53;;;40;;
84778;SDS011;75010;50.866;20.620;2024-01-30T06:00:15;53;;;41;;
84778;SDS011;75010;50.866;20.620;2024-01-30T06:10:17;53;;;41;;
84778;SDS011;75010;50.866;20.620;2024-01-30T06:20:09;41;;;35;;
84778;SDS011;75010;50.866;20.620;2024-01-30T06:30:15;41;;;35;;
84778;SDS011;75010;50.866;20.620;2024-01-30T06:40:10;52;;;41;;
84778;SDS011;75010;50.866;20.620;2024-01-30T06:50:06;51;;;40;;
84778;SDS011;75010;50.866;20.620;2024-01-30T07:00:07;51;;;40;;
84778;SDS011;75010;50.866;20.620;2024-01-30T07:10:13;50;;;40;;
84778;SDS011;75010;50.866;20.620;2024-01-30T07:20:02;50;;;40;;
84778;SDS011;75010;50.866;20.620;2024-01-30T07:30:13;57;;;44;;
84778;SDS011;75010;50.866;20.620;2024-01-30T07:40:14;57;;;44;;
84778;SDS011;75010;50.866;20.620;2024-01-30T07:50:16;48;;;36;;
84778;SDS011;75010;50.866;20.620;2024-01-30T08:00:06;48;;;36;;
84778;SDS011;75010;50.866;20.620;2024-01-30T08:10:02;28;;;23;;
84778;SDS011;75010;50.866;20.620;2024-01-30T08:20:02;28;;;23;;
84778;SDS011;75010;50.866;20.620;2024-01-30T08:30:03;25;;;22;;
84778;SDS011;75010;50.866;20.620;2024-01-30T08:40:06;31;;;29;;
84778;SDS011;75010;50.866;20.620;2024-01-30T08:50:09;31;;;29;;
84778;SDS011;75010;50.866;20.620;2024-01-30T09:00:11;36;;;32;;
84778;SDS011;75010;50.866;20.620;2024-01-30T09:10:06;36;;;32;;
84778;SDS011;75010;50.866;20.620;2024-01-30T09:20:17;33;;;29;;
84778;SDS011;75010;50.866;20.620;2024-01-30T09:30:06;33;;;29;;
84778;SDS011;75010;50.866;20.620;2024-01-30T09:40:14;32;;;27;;
84778;SDS011;75010;50.866;20.620;2024-01-30T09:50:11;36;;;30;;
84778;SDS011;75010;50.866;20.620;2024-01-30T10:00:12;28;;;24;;
84778;SDS011;75010;50.866;20.620;2024-01-30T10:10:13;28;;;18;;
84778;SDS011;75010;50.866;20.620;2024-01-30T10:20:07;24;;;21;;
84778;SDS011;75010;50.866;20.620;2024-01-30T10:30:14;24;;;21;;
84778;SDS011;75010;50.866;20.620;2024-01-30T10:40:23;25;;;22;;
84778;SDS011;75010;50.866;20.620;2024-01-30T10:50:15;22;;;18;;
84778;SDS011;75010;50.866;20.620;2024-01-30T11:00:30;22;;;18;;
84778;SDS011;75010;50.866;20.620;2024-01-30T11:10:18;25;;;23;;
84778;SDS011;75010;50.866;20.620;2024-01-30T11:20:03;25;;;23;;
84778;SDS011;75010;50.866;20.620;2024-01-30T11:30:27;25;;;23;;
84778;SDS011;75010;50.866;20.620;2024-01-30T11:40:03;25;;;23;;
84778;SDS011;75010;50.866;20.620;2024-01-30T11:50:16;20;;;20;;
84778;SDS011;75010;50.866;20.620;2024-01-30T12:00:14;19;;;17;;
84778;SDS011;75010;50.866;20.620;2024-01-30T12:10:10;17;;;14;;
84778;SDS011;75010;50.866;20.620;2024-01-30T12:20:08;17;;;14;;
84778;SDS011;75010;50.866;20.620;2024-01-30T12:30:21;17;;;16;;
84778;SDS011;75010;50.866;20.620;2024-01-30T12:40:20;16;;;16;;
84778;SDS011;75010;50.866;20.620;2024-01-30T12:50:02;16;;;14;;
84778;SDS011;75010;50.866;20.620;2024-01-30T13:00:10;19;;;17;;
84778;SDS011;75010;50.866;20.620;2024-01-30T13:10:15;20;;;17;;
84778;SDS011;75010;50.866;20.620;2024-01-30T13:20:02;20;;;17;;
84778;SDS011;75010;50.866;20.620;2024-01-30T13:30:17;25;;;24;;
84778;SDS011;75010;50.866;20.620;2024-01-30T13:40:19;25;;;24;;
84778;SDS011;75010;50.866;20.620;2024-01-30T13:50:15;21;;;19;;
84778;SDS011;75010;50.866;20.620;2024-01-30T14:00:19;21;;;19;;
84778;SDS011;75010;50.866;20.620;2024-01-30T14:10:03;25;;;21;;
84778;SDS011;75010;50.866;20.620;2024-01-30T14:20:11;25;;;21;;
84778;SDS011;75010;50.866;20.620;2024-01-30T14:30:14;22;;;17;;
84778;SDS011;75010;50.866;20.620;2024-01-30T14:40:17;22;;;21;;
84778;SDS011;75010;50.866;20.620;2024-01-30T14:50:14;22;;;21;;
84778;SDS011;75010;50.866;20.620;2024-01-30T15:00:17;20;;;18;;
84778;SDS011;75010;50.866;20.620;2024-01-30T15:10:03;20;;;18;;
84778;SDS011;75010;50.866;20.620;2024-01-30T15:20:07;36;;;28;;
84778;SDS011;75010;50.866;20.620;2024-01-30T15:30:20;36;;;28;;
84778;SDS011;75010;50.866;20.620;2024-01-30T15:40:15;25;;;23;;
84778;SDS011;75010;50.866;20.620;2024-01-30T15:50:05;32;;;28;;
84778;SDS011;75010;50.866;20.620;2024-01-30T16:00:22;32;;;28;;
84778;SDS011;75010;50.866;20.620;2024-01-30T16:10:17;37;;;33;;
84778;SDS011;75010;50.866;20.620;2024-01-30T16:20:02;37;;;33;;
84778;SDS011;75010;50.866;20.620;2024-01-30T16:30:11;44;;;37;;
84778;SDS011;75010;50.866;20.620;2024-01-30T16:40:07;44;;;37;;
84778;SDS011;75010;50.866;20.620;2024-01-30T16:50:05;46;;;38;;
84778;SDS011;75010;50.866;20.620;2024-01-30T17:00:19;46;;;38;;
84778;SDS011;75010;50.866;20.620;2024-01-30T17:10:10;41;;;33;;
84778;SDS011;75010;50.866;20.620;2024-01-30T17:20:06;53;;;42;;
84778;SDS011;75010;50.866;20.620;2024-01-30T17:30:14;53;;;42;;
84778;SDS011;75010;50.866;20.620;2024-01-30T17:40:03;40;;;32;;
84778;SDS011;75010;50.866;20.620;2024-01-30T17:50:10;52;;;43;;
84778;SDS011;75010;50.866;20.620;2024-01-30T18:00:22;52;;;43;;
84778;SDS011;75010;50.866;20.620;2024-01-30T18:10:03;50;;;41;;
84778;SDS011;75010;50.866;20.620;2024-01-30T18:20:13;45;;;36;;
84778;SDS011;75010;50.866;20.620;2024-01-30T18:30:06;46;;;37;;
84778;SDS011;75010;50.866;20.620;2024-01-30T18:40:10;53;;;37;;
84778;SDS011;75010;50.866;20.620;2024-01-30T18:50:10;61;;;48;;
84778;SDS011;75010;50.866;20.620;2024-01-30T19:00:05;61;;;48;;
84778;SDS011;75010;50.866;20.620;2024-01-30T19:10:02;62;;;49;;
84778;SDS011;75010;50.866;20.620;2024-01-30T19:20:17;62;;;48;;
84778;SDS011;75010;50.866;20.620;2024-01-30T19:30:17;64;;;50;;
84778;SDS011;75010;50.866;20.620;2024-01-30T19:40:18;56;;;43;;
84778;SDS011;75010;50.866;20.620;2024-01-30T19:50:08;60;;;47;;
84778;SDS011;75010;50.866;20.620;2024-01-30T20:00:14;60;;;47;;
84778;SDS011;75010;50.866;20.620;2024-01-30T20:10:03;57;;;44;;
84778;SDS011;75010;50.866;20.620;2024-01-30T20:20:02;54;;;42;;
84778;SDS011;75010;50.866;20.620;2024-01-30T20:30:18;65;;;50;;
84778;SDS011;75010;50.866;20.620;2024-01-30T20:40:11;70;;;54;;
84778;SDS011;75010;50.866;20.620;2024-01-30T20:50:03;62;;;47;;
84778;SDS011;75010;50.866;20.620;2024-01-30T21:00:04;62;;;47;;
84778;SDS011;75010;50.866;20.620;2024-01-30T21:10:11;60;;;46;;
84778;SDS011;75010;50.866;20.620;2024-01-30T21:20:12;57;;;44;;
84778;SDS011;75010;50.866;20.620;2024-01-30T21:30:02;62;;;46;;
84778;SDS011;75010;50.866;20.620;2024-01-30T21:40:11;57;;;45;;
84778;SDS011;75010;50.866;20.620;2024-01-30T21:50:10;57;;;45;;
84778;SDS011;75010;50.866;20.620;2024-01-30T22:00:11;59;;;44;;
84778;SDS011;75010;50.866;20.620;2024-01-30T22:10:16;59;;;44;;
84778;SDS011;75010;50.866;20.620;2024-01-30T22:20:09;58;;;44;;
84778;SDS011;75010;50.866;20.620;2024-01-30T22:30:02;58;;;44;;
84778;SDS011;75010;50.866;20.620;2024-01-30T22:40:03;60;;;46;;
84778;SDS011;75010;50.866;20.620;2024-01-30T22:50:03;59;;;45;;
84778;SDS011;75010;50.866;20.620;2024-01-30T23:00:10;55;;;45;;
84778;SDS011;75010;50.866;20.620;2024-01-30T23:10:03;56;;;44;;
84778;SDS011;75010;50.866;20.620;2024-01-30T23:20:13;61;;;47;;
84778;SDS011;75010;50.866;20.620;2024-01-30T23:30:10;62;;;46;;
84778;SDS011;75010;50.866;20.620;2024-01-30T23:40:17;62;;;46;;
84778;SDS011;75010;50.866;20.620;2024-01-30T23:50:03;66;;;52;;
